Austin Straubel International Airport
KGRB : now visible

Airfield :











YOU CAN JOIN US ON...

 
LOGIN :

Register | Disclaimer

   EN    FR    IT 

 









Legend :    VFR   Marginal VFR   IFR   Intensive IFR   Very Intensive IFR
Visi :
Ceiling :
>= 8 km
>= 3000ft
5 to 8 km
1000 to 3000 ft
1500m to 5 km
500 to 1000 ft
800 to 1500m
200 to 500 ft
< 800m
< 200 ft
Symbols :   Thunderstorms  Fog  Heavy snow  Heavy precipitations  Wind > 20 kt






- Airport Elevation : 695 ft
- IATA code : GRB


KGRB - Austin Straubel International

CURRENT METAR :
  • 291453Z 03021G27KT 10SM OVC055 03/M03 A3005 RMK AO2 PK WND 04028/1411 SLP183 T00281033 51021

EXPIRED METARs :
  • 291353Z 02020G28KT 10SM FEW022 OVC055 03/M02 A3003 RMK AO2 PK WND 02028/1352 SLP175 T00281022
  • 291253Z 02012KT 10SM OVC022 03/M01 A3001 RMK AO2 SLP168 T00281011

TAF KGRB
Valid from the 29 at 12:00 until the 30 at 12:00 UTC


291133Z 2912/3012 02012G18KT P6SM SCT021 BKN035
TEMPO 2912/2914 -SHRA BKN021
FM291400 02014G26KT P6SM SCT025 BKN035
TEMPO 2919/2923 SCT035 BKN100
FM292300 01006KT P6SM SCT040
FM300700 34005KT P6SM SCT120
KZMP FIR / North America



MET'MAP, your aeronautical weather chart ! - Copyright ORBIFLY December 2007 - Disclaimer

ORBIFLY MET'MAP TEAM :

Programming & Development : Alexandra Zaïnal
Concept & original design : Baudouin d'Aumeries
Assistance for programming : Marc-Olivier Méhu
Technical & hardware support : Manuel Goepfert

Contact : metmap@orbifly.com




SOURCES & CREDITS :

   NOAA       Earth
Advisory